sensor_id;sensor_type;location;lat;lon;timestamp;pressure;altitude;pressure_sealevel;temperature;humidity
12897;BME280;6516;35.028;32.372;2022-12-05T00:01:23;100547.91;;;13.76;97.03
12897;BME280;6516;35.028;32.372;2022-12-05T00:03:55;100544.47;;;13.72;97.13
12897;BME280;6516;35.028;32.372;2022-12-05T00:06:24;100545.41;;;13.70;97.27
12897;BME280;6516;35.028;32.372;2022-12-05T00:08:54;100538.28;;;13.73;97.57
12897;BME280;6516;35.028;32.372;2022-12-05T00:11:23;100534.78;;;13.71;97.40
12897;BME280;6516;35.028;32.372;2022-12-05T00:13:53;100539.19;;;13.72;97.41
12897;BME280;6516;35.028;32.372;2022-12-05T00:16:25;100539.97;;;13.76;97.24
12897;BME280;6516;35.028;32.372;2022-12-05T00:18:54;100538.34;;;13.70;97.46
12897;BME280;6516;35.028;32.372;2022-12-05T00:21:24;100534.13;;;13.63;97.50
12897;BME280;6516;35.028;32.372;2022-12-05T00:23:54;100527.34;;;13.52;97.53
12897;BME280;6516;35.028;32.372;2022-12-05T00:26:23;100534.53;;;13.45;97.46
12897;BME280;6516;35.028;32.372;2022-12-05T00:28:52;100542.53;;;13.42;97.79
12897;BME280;6516;35.028;32.372;2022-12-05T00:31:23;100535.53;;;13.41;98.51
12897;BME280;6516;35.028;32.372;2022-12-05T00:33:53;100533.44;;;13.54;99.24
12897;BME280;6516;35.028;32.372;2022-12-05T00:36:22;100524.66;;;13.53;99.24
12897;BME280;6516;35.028;32.372;2022-12-05T00:38:52;100526.28;;;13.59;99.42
12897;BME280;6516;35.028;32.372;2022-12-05T00:41:21;100523.75;;;13.54;99.28
12897;BME280;6516;35.028;32.372;2022-12-05T00:43:50;100524.56;;;13.56;99.18
12897;BME280;6516;35.028;32.372;2022-12-05T00:46:20;100524.41;;;13.62;99.44
12897;BME280;6516;35.028;32.372;2022-12-05T00:48:53;100525.28;;;13.63;99.53
12897;BME280;6516;35.028;32.372;2022-12-05T00:51:24;100534.91;;;13.67;99.35
12897;BME280;6516;35.028;32.372;2022-12-05T00:53:53;100530.38;;;13.72;99.20
12897;BME280;6516;35.028;32.372;2022-12-05T00:56:25;100522.38;;;13.75;99.42
12897;BME280;6516;35.028;32.372;2022-12-05T00:58:55;100524.84;;;13.81;99.23
12897;BME280;6516;35.028;32.372;2022-12-05T01:01:25;100519.47;;;13.85;98.74
12897;BME280;6516;35.028;32.372;2022-12-05T01:03:57;100517.59;;;13.89;98.61
12897;BME280;6516;35.028;32.372;2022-12-05T01:06:27;100514.91;;;13.90;98.47
12897;BME280;6516;35.028;32.372;2022-12-05T01:08:56;100511.28;;;13.94;98.44
12897;BME280;6516;35.028;32.372;2022-12-05T01:11:25;100509.28;;;14.02;98.50
12897;BME280;6516;35.028;32.372;2022-12-05T01:13:54;100509.22;;;14.05;98.28
12897;BME280;6516;35.028;32.372;2022-12-05T01:16:25;100505.78;;;14.02;98.17
12897;BME280;6516;35.028;32.372;2022-12-05T01:18:56;100499.69;;;13.98;98.48
12897;BME280;6516;35.028;32.372;2022-12-05T01:21:25;100499.63;;;14.00;98.71
12897;BME280;6516;35.028;32.372;2022-12-05T01:23:53;100502.22;;;14.03;99.13
12897;BME280;6516;35.028;32.372;2022-12-05T01:26:21;100502.25;;;14.01;99.04
12897;BME280;6516;35.028;32.372;2022-12-05T01:28:50;100504.66;;;14.10;99.36
12897;BME280;6516;35.028;32.372;2022-12-05T01:31:22;100497.63;;;14.09;99.14
12897;BME280;6516;35.028;32.372;2022-12-05T01:33:53;100502.19;;;14.04;99.03
12897;BME280;6516;35.028;32.372;2022-12-05T01:36:25;100500.56;;;13.99;99.30
12897;BME280;6516;35.028;32.372;2022-12-05T01:38:54;100502.28;;;14.00;99.68
12897;BME280;6516;35.028;32.372;2022-12-05T01:41:24;100500.50;;;14.02;99.75
12897;BME280;6516;35.028;32.372;2022-12-05T01:43:59;100498.81;;;13.98;99.93
12897;BME280;6516;35.028;32.372;2022-12-05T01:46:31;100496.28;;;13.93;99.70
12897;BME280;6516;35.028;32.372;2022-12-05T01:49:05;100498.19;;;13.88;99.58
12897;BME280;6516;35.028;32.372;2022-12-05T01:51:36;100494.94;;;13.77;99.71
12897;BME280;6516;35.028;32.372;2022-12-05T01:54:06;100493.16;;;13.78;99.93
12897;BME280;6516;35.028;32.372;2022-12-05T01:56:35;100503.03;;;13.71;100.00
12897;BME280;6516;35.028;32.372;2022-12-05T01:59:04;100496.97;;;13.66;100.00
12897;BME280;6516;35.028;32.372;2022-12-05T02:01:34;100496.34;;;13.57;100.00
12897;BME280;6516;35.028;32.372;2022-12-05T02:04:05;100502.81;;;13.45;100.00
12897;BME280;6516;35.028;32.372;2022-12-05T02:06:33;100497.63;;;13.39;100.00
12897;BME280;6516;35.028;32.372;2022-12-05T02:09:01;100497.91;;;13.29;100.00
12897;BME280;6516;35.028;32.372;2022-12-05T02:11:31;100499.13;;;13.14;100.00
12897;BME280;6516;35.028;32.372;2022-12-05T02:14:18;100500.03;;;13.13;100.00
12897;BME280;6516;35.028;32.372;2022-12-05T02:16:57;100499.19;;;13.11;100.00
12897;BME280;6516;35.028;32.372;2022-12-05T02:19:53;100500.84;;;13.17;100.00
12897;BME280;6516;35.028;32.372;2022-12-05T02:22:46;100502.34;;;13.27;100.00
12897;BME280;6516;35.028;32.372;2022-12-05T02:32:27;100501.59;;;13.22;100.00
12897;BME280;6516;35.028;32.372;2022-12-05T02:35:11;100504.25;;;13.22;100.00
12897;BME280;6516;35.028;32.372;2022-12-05T02:37:51;100504.25;;;13.22;100.00
12897;BME280;6516;35.028;32.372;2022-12-05T02:40:25;100508.53;;;13.27;100.00
12897;BME280;6516;35.028;32.372;2022-12-05T02:42:59;100510.31;;;13.25;100.00
12897;BME280;6516;35.028;32.372;2022-12-05T02:45:31;100511.22;;;13.24;100.00
12897;BME280;6516;35.028;32.372;2022-12-05T02:48:03;100507.78;;;13.21;100.00
12897;BME280;6516;35.028;32.372;2022-12-05T02:50:33;100513.13;;;13.18;100.00
12897;BME280;6516;35.028;32.372;2022-12-05T02:53:07;100522.88;;;13.17;100.00
12897;BME280;6516;35.028;32.372;2022-12-05T02:55:39;100521.84;;;13.23;100.00
12897;BME280;6516;35.028;32.372;2022-12-05T02:58:22;100511.34;;;13.20;100.00
12897;BME280;6516;35.028;32.372;2022-12-05T03:00:55;100508.63;;;13.23;100.00
12897;BME280;6516;35.028;32.372;2022-12-05T03:03:27;100507.75;;;13.22;100.00
12897;BME280;6516;35.028;32.372;2022-12-05T03:06:00;100513.91;;;13.23;100.00
12897;BME280;6516;35.028;32.372;2022-12-05T03:08:33;100516.53;;;13.23;100.00
12897;BME280;6516;35.028;32.372;2022-12-05T03:11:04;100514.72;;;13.26;100.00
12897;BME280;6516;35.028;32.372;2022-12-05T03:13:35;100512.00;;;13.29;100.00
12897;BME280;6516;35.028;32.372;2022-12-05T03:16:09;100517.28;;;13.29;100.00
12897;BME280;6516;35.028;32.372;2022-12-05T03:18:43;100520.84;;;13.28;100.00
12897;BME280;6516;35.028;32.372;2022-12-05T03:21:20;100511.13;;;13.29;100.00
12897;BME280;6516;35.028;32.372;2022-12-05T03:23:57;100519.06;;;13.29;100.00
12897;BME280;6516;35.028;32.372;2022-12-05T03:26:36;100521.63;;;13.32;100.00
12897;BME280;6516;35.028;32.372;2022-12-05T03:29:21;100520.84;;;13.28;100.00
12897;BME280;6516;35.028;32.372;2022-12-05T03:32:01;100517.28;;;13.29;100.00
12897;BME280;6516;35.028;32.372;2022-12-05T03:34:43;100518.22;;;13.27;100.00
12897;BME280;6516;35.028;32.372;2022-12-05T03:37:20;100518.28;;;13.24;100.00
12897;BME280;6516;35.028;32.372;2022-12-05T03:40:04;100516.63;;;13.20;100.00
12897;BME280;6516;35.028;32.372;2022-12-05T03:42:39;100525.44;;;13.19;100.00
12897;BME280;6516;35.028;32.372;2022-12-05T03:45:14;100518.41;;;13.19;100.00
12897;BME280;6516;35.028;32.372;2022-12-05T03:47:47;100525.53;;;13.16;100.00
12897;BME280;6516;35.028;32.372;2022-12-05T03:50:22;100523.66;;;13.21;100.00
12897;BME280;6516;35.028;32.372;2022-12-05T03:52:54;100516.63;;;13.20;100.00
12897;BME280;6516;35.028;32.372;2022-12-05T03:55:28;100516.56;;;13.21;100.00
12897;BME280;6516;35.028;32.372;2022-12-05T03:58:01;100510.44;;;13.21;100.00
12897;BME280;6516;35.028;32.372;2022-12-05T04:00:36;100515.63;;;13.24;100.00
12897;BME280;6516;35.028;32.372;2022-12-05T04:03:10;100519.13;;;13.26;100.00
12897;BME280;6516;35.028;32.372;2022-12-05T04:05:46;100519.13;;;13.26;100.00
12897;BME280;6516;35.028;32.372;2022-12-05T04:08:18;100515.56;;;13.27;100.00
12897;BME280;6516;35.028;32.372;2022-12-05T04:10:49;100519.13;;;13.26;100.00
12897;BME280;6516;35.028;32.372;2022-12-05T04:13:22;100521.66;;;13.30;100.00
12897;BME280;6516;35.028;32.372;2022-12-05T04:15:59;100518.06;;;13.33;100.00
12897;BME280;6516;35.028;32.372;2022-12-05T04:18:51;100519.69;;;13.40;99.77
12897;BME280;6516;35.028;32.372;2022-12-05T04:21:30;100520.59;;;13.39;99.60
12897;BME280;6516;35.028;32.372;2022-12-05T04:24:07;100521.34;;;13.44;99.23
12897;BME280;6516;35.028;32.372;2022-12-05T04:29:58;100527.56;;;13.43;98.83
12897;BME280;6516;35.028;32.372;2022-12-05T04:32:33;100528.31;;;13.48;98.50
12897;BME280;6516;35.028;32.372;2022-12-05T04:35:10;100530.94;;;13.49;98.34
12897;BME280;6516;35.028;32.372;2022-12-05T04:37:46;100529.09;;;13.51;97.90
12897;BME280;6516;35.028;32.372;2022-12-05T04:40:20;100529.13;;;13.50;97.57
12897;BME280;6516;35.028;32.372;2022-12-05T04:42:52;100529.94;;;13.53;97.28
12897;BME280;6516;35.028;32.372;2022-12-05T04:45:21;100536.94;;;13.56;97.12
12897;BME280;6516;35.028;32.372;2022-12-05T04:47:53;100532.53;;;13.55;96.97
12897;BME280;6516;35.028;32.372;2022-12-05T04:50:26;100536.84;;;13.59;96.73
12897;BME280;6516;35.028;32.372;2022-12-05T04:53:00;100529.88;;;13.56;96.90
12897;BME280;6516;35.028;32.372;2022-12-05T04:55:29;100535.13;;;13.58;96.53
12897;BME280;6516;35.028;32.372;2022-12-05T04:58:05;100528.81;;;13.63;95.96
12897;BME280;6516;35.028;32.372;2022-12-05T05:00:40;100528.78;;;13.65;95.75
12897;BME280;6516;35.028;32.372;2022-12-05T05:03:17;100531.28;;;13.71;95.52
12897;BME280;6516;35.028;32.372;2022-12-05T05:05:50;100536.50;;;13.74;95.24
12897;BME280;6516;35.028;32.372;2022-12-05T05:08:23;100532.72;;;13.84;95.15
12897;BME280;6516;35.028;32.372;2022-12-05T05:11:05;100530.84;;;13.87;95.01
12897;BME280;6516;35.028;32.372;2022-12-05T05:13:36;100540.44;;;13.93;94.84
12897;BME280;6516;35.028;32.372;2022-12-05T05:16:05;100533.28;;;13.96;94.60
12897;BME280;6516;35.028;32.372;2022-12-05T05:18:34;100542.84;;;14.02;94.71
12897;BME280;6516;35.028;32.372;2022-12-05T05:21:02;100538.38;;;14.04;94.81
12897;BME280;6516;35.028;32.372;2022-12-05T05:23:32;100542.63;;;14.11;94.67
12897;BME280;6516;35.028;32.372;2022-12-05T05:26:00;100548.56;;;14.20;94.40
12897;BME280;6516;35.028;32.372;2022-12-05T05:28:28;100551.00;;;14.28;94.56
12897;BME280;6516;35.028;32.372;2022-12-05T05:31:01;100550.75;;;14.37;94.51
12897;BME280;6516;35.028;32.372;2022-12-05T05:33:29;100554.91;;;14.47;94.00
12897;BME280;6516;35.028;32.372;2022-12-05T05:36:01;100548.44;;;14.57;93.79
12897;BME280;6516;35.028;32.372;2022-12-05T05:38:32;100552.03;;;14.56;93.94
12897;BME280;6516;35.028;32.372;2022-12-05T05:41:02;100556.19;;;14.64;93.86
12897;BME280;6516;35.028;32.372;2022-12-05T05:43:30;100558.69;;;14.69;94.14
12897;BME280;6516;35.028;32.372;2022-12-05T05:46:02;100554.97;;;14.76;94.25
12897;BME280;6516;35.028;32.372;2022-12-05T05:48:30;100554.66;;;14.86;94.30
12897;BME280;6516;35.028;32.372;2022-12-05T05:50:58;100561.47;;;14.95;94.41
12897;BME280;6516;35.028;32.372;2022-12-05T05:53:26;100560.28;;;15.05;94.21
12897;BME280;6516;35.028;32.372;2022-12-05T05:55:56;100560.88;;;15.16;93.83
12897;BME280;6516;35.028;32.372;2022-12-05T05:58:23;100567.44;;;15.32;93.78
12897;BME280;6516;35.028;32.372;2022-12-05T06:00:51;100564.25;;;15.50;93.08
12897;BME280;6516;35.028;32.372;2022-12-05T06:03:19;100566.25;;;15.71;92.47
12897;BME280;6516;35.028;32.372;2022-12-05T06:05:55;100566.53;;;15.89;91.46
12897;BME280;6516;35.028;32.372;2022-12-05T06:08:24;100565.03;;;16.07;90.57
12897;BME280;6516;35.028;32.372;2022-12-05T06:10:53;100566.16;;;16.26;90.16
12897;BME280;6516;35.028;32.372;2022-12-05T06:13:22;100567.09;;;16.51;90.11
12897;BME280;6516;35.028;32.372;2022-12-05T06:15:50;100568.91;;;16.73;88.24
12897;BME280;6516;35.028;32.372;2022-12-05T06:18:18;100564.53;;;16.95;85.33
12897;BME280;6516;35.028;32.372;2022-12-05T06:20:51;100574.25;;;17.19;83.10
12897;BME280;6516;35.028;32.372;2022-12-05T06:23:19;100567.06;;;17.46;83.10
12897;BME280;6516;35.028;32.372;2022-12-05T06:25:47;100569.69;;;17.69;82.84
12897;BME280;6516;35.028;32.372;2022-12-05T06:28:18;100561.56;;;17.93;81.81
12897;BME280;6516;35.028;32.372;2022-12-05T06:30:46;100569.41;;;18.18;80.48
12897;BME280;6516;35.028;32.372;2022-12-05T06:33:14;100574.59;;;18.42;79.56
12897;BME280;6516;35.028;32.372;2022-12-05T06:35:41;100574.00;;;18.56;75.71
12897;BME280;6516;35.028;32.372;2022-12-05T06:38:10;100570.66;;;18.71;74.02
12897;BME280;6516;35.028;32.372;2022-12-05T06:40:39;100578.50;;;18.94;73.99
12897;BME280;6516;35.028;32.372;2022-12-05T06:43:07;100582.88;;;19.15;73.17
12897;BME280;6516;35.028;32.372;2022-12-05T06:45:38;100581.00;;;19.37;71.76
12897;BME280;6516;35.028;32.372;2022-12-05T06:48:06;100580.78;;;19.60;71.33
12897;BME280;6516;35.028;32.372;2022-12-05T06:50:34;100582.50;;;19.80;71.31
12897;BME280;6516;35.028;32.372;2022-12-05T06:53:01;100580.16;;;20.09;70.61
12897;BME280;6516;35.028;32.372;2022-12-05T06:55:29;100582.69;;;20.29;69.03
12897;BME280;6516;35.028;32.372;2022-12-05T06:57:57;100584.44;;;20.47;67.54
12897;BME280;6516;35.028;32.372;2022-12-05T07:00:25;100589.72;;;20.66;67.19
12897;BME280;6516;35.028;32.372;2022-12-05T07:03:11;100587.44;;;20.92;67.47
12897;BME280;6516;35.028;32.372;2022-12-05T07:05:39;100578.88;;;21.18;65.59
12897;BME280;6516;35.028;32.372;2022-12-05T07:08:07;100580.88;;;21.30;64.09
12897;BME280;6516;35.028;32.372;2022-12-05T07:10:34;100590.53;;;21.33;63.70
12897;BME280;6516;35.028;32.372;2022-12-05T07:13:02;100583.94;;;21.55;64.70
12897;BME280;6516;35.028;32.372;2022-12-05T07:15:30;100588.47;;;21.70;64.17
12897;BME280;6516;35.028;32.372;2022-12-05T07:17:59;100594.88;;;21.83;63.26
12897;BME280;6516;35.028;32.372;2022-12-05T07:20:28;100597.47;;;22.00;61.67
12897;BME280;6516;35.028;32.372;2022-12-05T07:22:55;100597.91;;;22.08;61.73
12897;BME280;6516;35.028;32.372;2022-12-05T07:25:23;100594.75;;;22.16;61.76
12897;BME280;6516;35.028;32.372;2022-12-05T07:27:51;100596.97;;;22.39;61.68
12897;BME280;6516;35.028;32.372;2022-12-05T07:30:19;100600.59;;;22.53;59.77
12897;BME280;6516;35.028;32.372;2022-12-05T07:32:46;100596.88;;;22.56;60.63
12897;BME280;6516;35.028;32.372;2022-12-05T07:35:14;100600.06;;;22.62;60.20
12897;BME280;6516;35.028;32.372;2022-12-05T07:37:43;100597.25;;;22.64;58.41
12897;BME280;6516;35.028;32.372;2022-12-05T07:40:12;100602.22;;;22.85;58.41
12897;BME280;6516;35.028;32.372;2022-12-05T07:42:40;100595.31;;;22.95;57.48
12897;BME280;6516;35.028;32.372;2022-12-05T07:45:09;100595.22;;;22.97;58.07
12897;BME280;6516;35.028;32.372;2022-12-05T07:47:37;100597.44;;;23.04;58.19
12897;BME280;6516;35.028;32.372;2022-12-05T07:50:06;100601.47;;;23.11;57.46
12897;BME280;6516;35.028;32.372;2022-12-05T07:52:34;100599.47;;;23.15;57.44
12897;BME280;6516;35.028;32.372;2022-12-05T07:55:04;100595.19;;;23.26;56.66
12897;BME280;6516;35.028;32.372;2022-12-05T07:57:32;100590.56;;;23.28;56.97
12897;BME280;6516;35.028;32.372;2022-12-05T08:00:00;100594.41;;;23.24;56.58
12897;BME280;6516;35.028;32.372;2022-12-05T08:02:29;100581.94;;;23.23;56.28
12897;BME280;6516;35.028;32.372;2022-12-05T08:04:56;100586.53;;;23.49;55.91
12897;BME280;6516;35.028;32.372;2022-12-05T08:07:24;100583.28;;;23.30;56.16
12897;BME280;6516;35.028;32.372;2022-12-05T08:09:52;100582.72;;;23.39;56.26
12897;BME280;6516;35.028;32.372;2022-12-05T08:12:21;100577.78;;;23.46;55.70
12897;BME280;6516;35.028;32.372;2022-12-05T08:14:49;100579.50;;;23.61;55.39
12897;BME280;6516;35.028;32.372;2022-12-05T08:17:17;100583.34;;;23.71;55.81
12897;BME280;6516;35.028;32.372;2022-12-05T08:19:44;100577.81;;;23.86;55.50
12897;BME280;6516;35.028;32.372;2022-12-05T08:22:13;100578.66;;;23.87;55.40
12897;BME280;6516;35.028;32.372;2022-12-05T08:24:40;100575.97;;;23.87;54.61
12897;BME280;6516;35.028;32.372;2022-12-05T08:27:08;100573.19;;;23.88;55.56
12897;BME280;6516;35.028;32.372;2022-12-05T08:29:38;100576.75;;;23.89;54.54
12897;BME280;6516;35.028;32.372;2022-12-05T08:32:06;100560.91;;;23.98;54.68
12897;BME280;6516;35.028;32.372;2022-12-05T08:34:34;100566.31;;;23.98;54.73
12897;BME280;6516;35.028;32.372;2022-12-05T08:37:01;100562.94;;;24.21;53.87
12897;BME280;6516;35.028;32.372;2022-12-05T08:39:29;100561.72;;;24.13;53.71
12897;BME280;6516;35.028;32.372;2022-12-05T08:41:57;100556.88;;;24.18;53.89
12897;BME280;6516;35.028;32.372;2022-12-05T08:44:25;100556.94;;;24.30;53.06
12897;BME280;6516;35.028;32.372;2022-12-05T08:46:54;100556.31;;;24.39;52.93
12897;BME280;6516;35.028;32.372;2022-12-05T08:49:22;100553.47;;;24.28;52.51
12897;BME280;6516;35.028;32.372;2022-12-05T08:51:50;100552.72;;;23.86;52.99
12897;BME280;6516;35.028;32.372;2022-12-05T08:54:18;100557.72;;;23.51;53.92
12897;BME280;6516;35.028;32.372;2022-12-05T08:56:45;100553.97;;;22.98;55.27
12897;BME280;6516;35.028;32.372;2022-12-05T08:59:16;100556.78;;;22.53;55.97
12897;BME280;6516;35.028;32.372;2022-12-05T09:01:44;100541.38;;;22.41;56.80
12897;BME280;6516;35.028;32.372;2022-12-05T09:04:13;100552.84;;;21.99;58.62
12897;BME280;6516;35.028;32.372;2022-12-05T09:06:41;100540.56;;;21.95;59.14
12897;BME280;6516;35.028;32.372;2022-12-05T09:09:10;100543.28;;;22.09;59.26
12897;BME280;6516;35.028;32.372;2022-12-05T09:11:40;100539.53;;;22.27;58.68
12897;BME280;6516;35.028;32.372;2022-12-05T09:14:11;100530.06;;;22.65;58.35
12897;BME280;6516;35.028;32.372;2022-12-05T09:16:41;100534.59;;;22.93;56.56
12897;BME280;6516;35.028;32.372;2022-12-05T09:19:14;100530.78;;;23.25;55.27
12897;BME280;6516;35.028;32.372;2022-12-05T09:21:43;100532.78;;;23.49;54.52
12897;BME280;6516;35.028;32.372;2022-12-05T09:24:12;100519.44;;;23.74;53.26
12897;BME280;6516;35.028;32.372;2022-12-05T09:26:39;100523.16;;;23.86;53.90
12897;BME280;6516;35.028;32.372;2022-12-05T09:29:08;100521.56;;;24.10;53.61
12897;BME280;6516;35.028;32.372;2022-12-05T09:31:35;100517.28;;;24.20;51.70
12897;BME280;6516;35.028;32.372;2022-12-05T09:34:07;100510.09;;;24.33;50.67
12897;BME280;6516;35.028;32.372;2022-12-05T09:36:36;100503.75;;;24.46;50.90
12897;BME280;6516;35.028;32.372;2022-12-05T09:39:05;100499.25;;;24.47;50.05
12897;BME280;6516;35.028;32.372;2022-12-05T09:42:02;100508.31;;;24.58;50.11
12897;BME280;6516;35.028;32.372;2022-12-05T09:45:01;100500.78;;;24.76;50.81
12897;BME280;6516;35.028;32.372;2022-12-05T09:47:40;100497.47;;;24.85;49.80
12897;BME280;6516;35.028;32.372;2022-12-05T09:50:18;100488.53;;;24.84;50.15
12897;BME280;6516;35.028;32.372;2022-12-05T09:55:49;100484.22;;;24.94;49.48
12897;BME280;6516;35.028;32.372;2022-12-05T09:58:29;100480.00;;;24.90;49.92
12897;BME280;6516;35.028;32.372;2022-12-05T10:01:13;100479.75;;;24.93;48.79
12897;BME280;6516;35.028;32.372;2022-12-05T10:04:03;100480.53;;;24.95;48.58
12897;BME280;6516;35.028;32.372;2022-12-05T10:06:45;100472.13;;;24.87;49.09
12897;BME280;6516;35.028;32.372;2022-12-05T10:09:33;100465.09;;;24.97;49.03
12897;BME280;6516;35.028;32.372;2022-12-05T10:12:17;100468.69;;;24.98;48.67
12897;BME280;6516;35.028;32.372;2022-12-05T10:15:02;100462.09;;;25.02;49.17
12897;BME280;6516;35.028;32.372;2022-12-05T10:17:40;100467.56;;;25.13;49.35
12897;BME280;6516;35.028;32.372;2022-12-05T10:20:14;100450.97;;;25.19;49.17
12897;BME280;6516;35.028;32.372;2022-12-05T10:22:46;100453.25;;;25.12;49.17
12897;BME280;6516;35.028;32.372;2022-12-05T10:25:20;100442.97;;;25.17;49.68
12897;BME280;6516;35.028;32.372;2022-12-05T10:27:50;100441.94;;;25.07;49.79
12897;BME280;6516;35.028;32.372;2022-12-05T10:30:20;100434.66;;;24.84;49.24
12897;BME280;6516;35.028;32.372;2022-12-05T10:32:52;100443.53;;;24.97;50.25
12897;BME280;6516;35.028;32.372;2022-12-05T10:35:23;100438.69;;;25.02;49.74
12897;BME280;6516;35.028;32.372;2022-12-05T10:37:54;100438.47;;;25.05;49.84
12897;BME280;6516;35.028;32.372;2022-12-05T10:40:28;100427.53;;;24.96;49.86
12897;BME280;6516;35.028;32.372;2022-12-05T10:43:00;100421.25;;;24.58;50.31
12897;BME280;6516;35.028;32.372;2022-12-05T10:45:28;100424.72;;;24.22;51.76
12897;BME280;6516;35.028;32.372;2022-12-05T10:47:56;100436.75;;;23.78;52.79
12897;BME280;6516;35.028;32.372;2022-12-05T10:50:28;100429.78;;;23.35;53.74
12897;BME280;6516;35.028;32.372;2022-12-05T10:52:59;100432.31;;;23.10;54.73
12897;BME280;6516;35.028;32.372;2022-12-05T10:55:33;100428.59;;;23.12;54.96
12897;BME280;6516;35.028;32.372;2022-12-05T10:58:11;100416.97;;;23.26;54.80
12897;BME280;6516;35.028;32.372;2022-12-05T11:00:41;100421.88;;;23.46;54.42
12897;BME280;6516;35.028;32.372;2022-12-05T11:03:23;100411.38;;;23.55;54.20
12897;BME280;6516;35.028;32.372;2022-12-05T11:05:54;100413.81;;;23.72;53.46
12897;BME280;6516;35.028;32.372;2022-12-05T11:08:24;100404.47;;;23.78;53.29
12897;BME280;6516;35.028;32.372;2022-12-05T11:11:02;100398.22;;;23.65;53.23
12897;BME280;6516;35.028;32.372;2022-12-05T11:13:33;100407.47;;;23.73;52.62
12897;BME280;6516;35.028;32.372;2022-12-05T11:16:00;100396.84;;;23.84;52.47
12897;BME280;6516;35.028;32.372;2022-12-05T11:18:31;100398.59;;;23.85;53.23
12897;BME280;6516;35.028;32.372;2022-12-05T11:21:09;100392.81;;;24.04;52.56
12897;BME280;6516;35.028;32.372;2022-12-05T11:23:38;100386.91;;;24.11;52.93
12897;BME280;6516;35.028;32.372;2022-12-05T11:26:16;100390.47;;;24.24;52.43
12897;BME280;6516;35.028;32.372;2022-12-05T11:28:46;100382.72;;;24.07;52.16
12897;BME280;6516;35.028;32.372;2022-12-05T11:31:24;100384.34;;;23.83;53.15
12897;BME280;6516;35.028;32.372;2022-12-05T11:34:15;100385.09;;;23.34;54.81
12897;BME280;6516;35.028;32.372;2022-12-05T11:36:49;100392.63;;;23.01;56.07
12897;BME280;6516;35.028;32.372;2022-12-05T11:39:19;100392.56;;;22.60;56.48
12897;BME280;6516;35.028;32.372;2022-12-05T11:41:58;100394.09;;;22.36;56.96
12897;BME280;6516;35.028;32.372;2022-12-05T11:44:55;100395.66;;;21.97;57.67
12897;BME280;6516;35.028;32.372;2022-12-05T11:48:03;100388.81;;;21.62;58.21
12897;BME280;6516;35.028;32.372;2022-12-05T11:50:41;100393.78;;;21.38;59.28
12897;BME280;6516;35.028;32.372;2022-12-05T11:53:35;100387.84;;;21.18;60.64
12897;BME280;6516;35.028;32.372;2022-12-05T11:56:21;100394.00;;;21.04;61.22
12897;BME280;6516;35.028;32.372;2022-12-05T11:59:18;100389.84;;;20.99;61.10
12897;BME280;6516;35.028;32.372;2022-12-05T12:02:04;100384.13;;;21.05;61.75
12897;BME280;6516;35.028;32.372;2022-12-05T12:04:47;100390.69;;;21.15;61.28
12897;BME280;6516;35.028;32.372;2022-12-05T12:07:26;100385.44;;;21.29;61.26
12897;BME280;6516;35.028;32.372;2022-12-05T12:10:07;100384.03;;;21.37;60.58
12897;BME280;6516;35.028;32.372;2022-12-05T12:12:47;100386.34;;;21.28;60.96
12897;BME280;6516;35.028;32.372;2022-12-05T12:15:37;100383.88;;;21.09;61.08
12897;BME280;6516;35.028;32.372;2022-12-05T12:18:21;100386.66;;;20.92;61.59
12897;BME280;6516;35.028;32.372;2022-12-05T12:21:06;100383.31;;;20.72;62.46
12897;BME280;6516;35.028;32.372;2022-12-05T12:23:53;100377.25;;;20.53;63.20
12897;BME280;6516;35.028;32.372;2022-12-05T12:26:37;100386.00;;;20.39;63.59
12897;BME280;6516;35.028;32.372;2022-12-05T12:29:17;100379.59;;;20.26;63.85
12897;BME280;6516;35.028;32.372;2022-12-05T12:32:03;100386.84;;;20.07;65.19
12897;BME280;6516;35.028;32.372;2022-12-05T12:38:31;100377.75;;;19.77;65.78
12897;BME280;6516;35.028;32.372;2022-12-05T12:41:27;100373.81;;;19.67;65.92
12897;BME280;6516;35.028;32.372;2022-12-05T12:44:17;100385.91;;;19.57;65.65
12897;BME280;6516;35.028;32.372;2022-12-05T12:47:14;100377.50;;;19.48;66.49
12897;BME280;6516;35.028;32.372;2022-12-05T12:49:55;100376.16;;;19.39;66.66
12897;BME280;6516;35.028;32.372;2022-12-05T12:52:42;100378.50;;;19.28;66.82
12897;BME280;6516;35.028;32.372;2022-12-05T12:55:21;100375.63;;;19.14;67.21
12897;BME280;6516;35.028;32.372;2022-12-05T12:58:00;100375.81;;;19.09;67.37
12897;BME280;6516;35.028;32.372;2022-12-05T13:00:43;100378.88;;;19.02;68.02
12897;BME280;6516;35.028;32.372;2022-12-05T13:03:23;100381.78;;;18.97;68.33
12897;BME280;6516;35.028;32.372;2022-12-05T13:05:58;100373.19;;;18.91;68.66
12897;BME280;6516;35.028;32.372;2022-12-05T13:08:33;100375.22;;;18.86;69.31
12897;BME280;6516;35.028;32.372;2022-12-05T13:11:07;100380.00;;;18.79;69.61
12897;BME280;6516;35.028;32.372;2022-12-05T13:13:41;100369.66;;;18.72;70.00
12897;BME280;6516;35.028;32.372;2022-12-05T13:16:14;100377.09;;;18.65;70.42
12897;BME280;6516;35.028;32.372;2022-12-05T13:18:49;100378.19;;;18.61;70.54
12897;BME280;6516;35.028;32.372;2022-12-05T13:21:17;100369.59;;;18.55;71.12
12897;BME280;6516;35.028;32.372;2022-12-05T13:23:49;100383.06;;;18.52;70.49
12897;BME280;6516;35.028;32.372;2022-12-05T13:26:20;100379.47;;;18.53;70.42
12897;BME280;6516;35.028;32.372;2022-12-05T13:28:51;100379.47;;;18.53;70.94
12897;BME280;6516;35.028;32.372;2022-12-05T13:31:34;100378.44;;;18.55;70.90
12897;BME280;6516;35.028;32.372;2022-12-05T13:34:05;100374.88;;;18.56;70.56
12897;BME280;6516;35.028;32.372;2022-12-05T13:36:39;100369.59;;;18.55;70.60